sensor_id;sensor_type;location;lat;lon;timestamp;P1;durP1;ratioP1;P2;durP2;ratioP2
75426;SDS011;64007;50.632;13.700;2024-02-15T00:00:12;9.00;;;4.22;;
75426;SDS011;64007;50.632;13.700;2024-02-15T00:03:01;10.07;;;4.70;;
75426;SDS011;64007;50.632;13.700;2024-02-15T00:05:27;6.45;;;4.38;;
75426;SDS011;64007;50.632;13.700;2024-02-15T00:07:53;11.95;;;4.47;;
75426;SDS011;64007;50.632;13.700;2024-02-15T00:10:19;12.98;;;5.45;;
75426;SDS011;64007;50.632;13.700;2024-02-15T00:12:50;8.40;;;4.85;;
75426;SDS011;64007;50.632;13.700;2024-02-15T00:15:16;10.45;;;5.50;;
75426;SDS011;64007;50.632;13.700;2024-02-15T00:17:42;10.93;;;6.15;;
75426;SDS011;64007;50.632;13.700;2024-02-15T00:20:08;9.10;;;5.10;;
75426;SDS011;64007;50.632;13.700;2024-02-15T00:22:35;15.52;;;5.53;;
75426;SDS011;64007;50.632;13.700;2024-02-15T00:25:02;6.95;;;4.18;;
75426;SDS011;64007;50.632;13.700;2024-02-15T00:27:28;8.32;;;4.18;;
75426;SDS011;64007;50.632;13.700;2024-02-15T00:29:53;9.85;;;3.58;;
75426;SDS011;64007;50.632;13.700;2024-02-15T00:32:19;7.00;;;3.67;;
75426;SDS011;64007;50.632;13.700;2024-02-15T00:34:45;8.77;;;3.40;;
75426;SDS011;64007;50.632;13.700;2024-02-15T00:37:12;8.65;;;3.70;;
75426;SDS011;64007;50.632;13.700;2024-02-15T00:39:37;7.63;;;3.55;;
75426;SDS011;64007;50.632;13.700;2024-02-15T00:42:03;9.82;;;4.43;;
75426;SDS011;64007;50.632;13.700;2024-02-15T00:44:31;10.80;;;5.40;;
75426;SDS011;64007;50.632;13.700;2024-02-15T00:46:56;11.18;;;4.50;;
75426;SDS011;64007;50.632;13.700;2024-02-15T00:49:22;8.93;;;4.30;;
75426;SDS011;64007;50.632;13.700;2024-02-15T00:51:48;8.95;;;4.88;;
75426;SDS011;64007;50.632;13.700;2024-02-15T00:54:14;10.82;;;4.53;;
75426;SDS011;64007;50.632;13.700;2024-02-15T00:56:40;5.95;;;3.72;;
75426;SDS011;64007;50.632;13.700;2024-02-15T00:59:06;7.53;;;4.00;;
75426;SDS011;64007;50.632;13.700;2024-02-15T01:01:31;6.75;;;4.05;;
75426;SDS011;64007;50.632;13.700;2024-02-15T01:03:58;9.07;;;4.25;;
75426;SDS011;64007;50.632;13.700;2024-02-15T01:06:23;6.22;;;4.18;;
75426;SDS011;64007;50.632;13.700;2024-02-15T01:08:49;8.57;;;3.80;;
75426;SDS011;64007;50.632;13.700;2024-02-15T01:11:15;10.80;;;4.07;;
75426;SDS011;64007;50.632;13.700;2024-02-15T01:13:41;9.05;;;4.22;;
75426;SDS011;64007;50.632;13.700;2024-02-15T01:16:07;6.93;;;4.15;;
75426;SDS011;64007;50.632;13.700;2024-02-15T01:18:33;7.22;;;4.05;;
75426;SDS011;64007;50.632;13.700;2024-02-15T01:21:00;9.48;;;4.20;;
75426;SDS011;64007;50.632;13.700;2024-02-15T01:23:26;9.38;;;4.05;;
75426;SDS011;64007;50.632;13.700;2024-02-15T01:25:52;6.82;;;4.22;;
75426;SDS011;64007;50.632;13.700;2024-02-15T01:28:18;9.73;;;4.18;;
75426;SDS011;64007;50.632;13.700;2024-02-15T01:30:44;9.43;;;4.15;;
75426;SDS011;64007;50.632;13.700;2024-02-15T01:33:11;11.32;;;3.97;;
75426;SDS011;64007;50.632;13.700;2024-02-15T01:35:37;5.90;;;3.63;;
75426;SDS011;64007;50.632;13.700;2024-02-15T01:38:03;10.43;;;3.50;;
75426;SDS011;64007;50.632;13.700;2024-02-15T01:40:29;7.50;;;3.58;;
75426;SDS011;64007;50.632;13.700;2024-02-15T01:42:55;8.45;;;3.40;;
75426;SDS011;64007;50.632;13.700;2024-02-15T01:45:21;6.05;;;3.60;;
75426;SDS011;64007;50.632;13.700;2024-02-15T01:47:47;10.18;;;3.65;;
75426;SDS011;64007;50.632;13.700;2024-02-15T01:50:14;5.72;;;3.38;;
75426;SDS011;64007;50.632;13.700;2024-02-15T01:52:43;7.45;;;3.58;;
75426;SDS011;64007;50.632;13.700;2024-02-15T01:55:12;7.97;;;3.30;;
75426;SDS011;64007;50.632;13.700;2024-02-15T01:57:43;8.95;;;3.50;;
75426;SDS011;64007;50.632;13.700;2024-02-15T02:00:10;4.72;;;3.35;;
75426;SDS011;64007;50.632;13.700;2024-02-15T02:02:39;5.88;;;3.20;;
75426;SDS011;64007;50.632;13.700;2024-02-15T02:05:07;8.48;;;3.28;;
75426;SDS011;64007;50.632;13.700;2024-02-15T02:07:33;8.82;;;3.42;;
75426;SDS011;64007;50.632;13.700;2024-02-15T02:09:59;5.00;;;3.30;;
75426;SDS011;64007;50.632;13.700;2024-02-15T02:12:25;12.90;;;3.75;;
75426;SDS011;64007;50.632;13.700;2024-02-15T02:14:53;8.13;;;3.85;;
75426;SDS011;64007;50.632;13.700;2024-02-15T02:17:22;7.47;;;4.07;;
75426;SDS011;64007;50.632;13.700;2024-02-15T02:19:47;9.65;;;3.38;;
75426;SDS011;64007;50.632;13.700;2024-02-15T02:22:16;6.93;;;3.45;;
75426;SDS011;64007;50.632;13.700;2024-02-15T02:25:00;5.50;;;3.38;;
75426;SDS011;64007;50.632;13.700;2024-02-15T02:27:32;7.70;;;3.47;;
75426;SDS011;64007;50.632;13.700;2024-02-15T02:29:58;6.25;;;3.33;;
75426;SDS011;64007;50.632;13.700;2024-02-15T02:32:25;6.30;;;3.65;;
75426;SDS011;64007;50.632;13.700;2024-02-15T02:34:51;7.43;;;3.47;;
75426;SDS011;64007;50.632;13.700;2024-02-15T02:37:23;9.13;;;3.22;;
75426;SDS011;64007;50.632;13.700;2024-02-15T02:39:50;5.07;;;3.42;;
75426;SDS011;64007;50.632;13.700;2024-02-15T02:42:16;6.45;;;3.90;;
75426;SDS011;64007;50.632;13.700;2024-02-15T02:44:42;9.85;;;4.80;;
75426;SDS011;64007;50.632;13.700;2024-02-15T02:47:08;7.90;;;4.90;;
75426;SDS011;64007;50.632;13.700;2024-02-15T02:49:36;8.55;;;5.05;;
75426;SDS011;64007;50.632;13.700;2024-02-15T02:52:03;12.27;;;5.75;;
75426;SDS011;64007;50.632;13.700;2024-02-15T02:54:29;9.63;;;5.28;;
75426;SDS011;64007;50.632;13.700;2024-02-15T02:56:55;9.75;;;5.10;;
75426;SDS011;64007;50.632;13.700;2024-02-15T02:59:21;11.15;;;5.32;;
75426;SDS011;64007;50.632;13.700;2024-02-15T03:01:47;10.40;;;5.05;;
75426;SDS011;64007;50.632;13.700;2024-02-15T03:04:16;9.82;;;5.70;;
75426;SDS011;64007;50.632;13.700;2024-02-15T03:06:43;13.15;;;5.97;;
75426;SDS011;64007;50.632;13.700;2024-02-15T03:09:09;10.00;;;6.18;;
75426;SDS011;64007;50.632;13.700;2024-02-15T03:11:36;15.85;;;6.60;;
75426;SDS011;64007;50.632;13.700;2024-02-15T03:14:02;11.18;;;6.18;;
75426;SDS011;64007;50.632;13.700;2024-02-15T03:16:32;8.98;;;5.78;;
75426;SDS011;64007;50.632;13.700;2024-02-15T03:18:59;11.85;;;5.90;;
75426;SDS011;64007;50.632;13.700;2024-02-15T03:21:28;11.48;;;5.97;;
75426;SDS011;64007;50.632;13.700;2024-02-15T03:23:54;10.40;;;5.93;;
75426;SDS011;64007;50.632;13.700;2024-02-15T03:26:32;10.18;;;5.45;;
75426;SDS011;64007;50.632;13.700;2024-02-15T03:29:04;10.70;;;6.03;;
75426;SDS011;64007;50.632;13.700;2024-02-15T03:31:30;11.18;;;5.38;;
75426;SDS011;64007;50.632;13.700;2024-02-15T03:33:58;11.38;;;6.07;;
75426;SDS011;64007;50.632;13.700;2024-02-15T03:36:24;11.85;;;5.80;;
75426;SDS011;64007;50.632;13.700;2024-02-15T03:38:50;10.02;;;5.93;;
75426;SDS011;64007;50.632;13.700;2024-02-15T03:41:18;12.68;;;5.97;;
75426;SDS011;64007;50.632;13.700;2024-02-15T03:43:44;9.43;;;5.65;;
75426;SDS011;64007;50.632;13.700;2024-02-15T03:46:09;10.30;;;5.57;;
75426;SDS011;64007;50.632;13.700;2024-02-15T03:48:37;8.88;;;5.07;;
75426;SDS011;64007;50.632;13.700;2024-02-15T03:51:03;8.73;;;4.82;;
75426;SDS011;64007;50.632;13.700;2024-02-15T03:53:29;8.05;;;4.85;;
75426;SDS011;64007;50.632;13.700;2024-02-15T03:55:56;10.52;;;5.63;;
75426;SDS011;64007;50.632;13.700;2024-02-15T03:58:22;7.70;;;5.05;;
75426;SDS011;64007;50.632;13.700;2024-02-15T04:00:48;10.65;;;5.40;;
75426;SDS011;64007;50.632;13.700;2024-02-15T04:03:13;11.40;;;5.20;;
75426;SDS011;64007;50.632;13.700;2024-02-15T04:05:39;13.20;;;5.78;;
75426;SDS011;64007;50.632;13.700;2024-02-15T04:08:05;11.00;;;5.15;;
75426;SDS011;64007;50.632;13.700;2024-02-15T04:10:31;10.10;;;5.28;;
75426;SDS011;64007;50.632;13.700;2024-02-15T04:12:56;8.73;;;5.03;;
75426;SDS011;64007;50.632;13.700;2024-02-15T04:15:23;9.65;;;5.00;;
75426;SDS011;64007;50.632;13.700;2024-02-15T04:17:49;11.85;;;4.93;;
75426;SDS011;64007;50.632;13.700;2024-02-15T04:20:21;8.85;;;4.85;;
75426;SDS011;64007;50.632;13.700;2024-02-15T04:22:47;8.70;;;4.68;;
75426;SDS011;64007;50.632;13.700;2024-02-15T04:25:15;9.80;;;4.93;;
75426;SDS011;64007;50.632;13.700;2024-02-15T04:27:43;8.57;;;4.70;;
75426;SDS011;64007;50.632;13.700;2024-02-15T04:30:11;8.98;;;5.15;;
75426;SDS011;64007;50.632;13.700;2024-02-15T04:32:36;11.13;;;5.38;;
75426;SDS011;64007;50.632;13.700;2024-02-15T04:35:02;8.90;;;4.97;;
75426;SDS011;64007;50.632;13.700;2024-02-15T04:37:29;10.55;;;5.30;;
75426;SDS011;64007;50.632;13.700;2024-02-15T04:39:58;9.70;;;5.18;;
75426;SDS011;64007;50.632;13.700;2024-02-15T04:42:24;13.85;;;5.22;;
75426;SDS011;64007;50.632;13.700;2024-02-15T04:44:53;7.85;;;4.90;;
75426;SDS011;64007;50.632;13.700;2024-02-15T04:47:19;9.50;;;5.18;;
75426;SDS011;64007;50.632;13.700;2024-02-15T04:49:46;13.50;;;5.32;;
75426;SDS011;64007;50.632;13.700;2024-02-15T04:52:11;10.55;;;4.63;;
75426;SDS011;64007;50.632;13.700;2024-02-15T04:54:37;8.30;;;4.72;;
75426;SDS011;64007;50.632;13.700;2024-02-15T04:57:03;10.05;;;5.07;;
75426;SDS011;64007;50.632;13.700;2024-02-15T04:59:29;10.32;;;4.85;;
75426;SDS011;64007;50.632;13.700;2024-02-15T05:01:54;9.25;;;5.00;;
75426;SDS011;64007;50.632;13.700;2024-02-15T05:04:21;7.35;;;4.00;;
75426;SDS011;64007;50.632;13.700;2024-02-15T05:06:48;9.10;;;4.82;;
75426;SDS011;64007;50.632;13.700;2024-02-15T05:09:13;9.45;;;4.13;;
75426;SDS011;64007;50.632;13.700;2024-02-15T05:11:39;10.00;;;4.32;;
75426;SDS011;64007;50.632;13.700;2024-02-15T05:14:12;7.50;;;4.57;;
75426;SDS011;64007;50.632;13.700;2024-02-15T05:16:38;6.30;;;4.00;;
75426;SDS011;64007;50.632;13.700;2024-02-15T05:19:08;6.50;;;3.70;;
75426;SDS011;64007;50.632;13.700;2024-02-15T05:21:36;6.00;;;3.97;;
75426;SDS011;64007;50.632;13.700;2024-02-15T05:24:04;9.40;;;4.45;;
75426;SDS011;64007;50.632;13.700;2024-02-15T05:26:30;5.68;;;4.10;;
75426;SDS011;64007;50.632;13.700;2024-02-15T05:28:56;5.80;;;4.05;;
75426;SDS011;64007;50.632;13.700;2024-02-15T05:31:21;6.90;;;4.32;;
75426;SDS011;64007;50.632;13.700;2024-02-15T05:33:51;6.53;;;4.47;;
75426;SDS011;64007;50.632;13.700;2024-02-15T05:36:17;10.10;;;4.80;;
75426;SDS011;64007;50.632;13.700;2024-02-15T05:38:49;8.05;;;5.43;;
75426;SDS011;64007;50.632;13.700;2024-02-15T05:41:16;9.23;;;4.60;;
75426;SDS011;64007;50.632;13.700;2024-02-15T05:43:42;10.15;;;5.45;;
75426;SDS011;64007;50.632;13.700;2024-02-15T05:46:09;11.90;;;5.35;;
75426;SDS011;64007;50.632;13.700;2024-02-15T05:48:35;10.45;;;5.72;;
75426;SDS011;64007;50.632;13.700;2024-02-15T05:51:03;11.18;;;6.15;;
75426;SDS011;64007;50.632;13.700;2024-02-15T05:53:29;8.60;;;5.93;;
75426;SDS011;64007;50.632;13.700;2024-02-15T05:55:56;9.95;;;5.95;;
75426;SDS011;64007;50.632;13.700;2024-02-15T05:58:24;10.15;;;5.88;;
75426;SDS011;64007;50.632;13.700;2024-02-15T06:00:50;11.63;;;6.03;;
75426;SDS011;64007;50.632;13.700;2024-02-15T06:03:16;9.82;;;6.05;;
75426;SDS011;64007;50.632;13.700;2024-02-15T06:05:42;12.40;;;6.38;;
75426;SDS011;64007;50.632;13.700;2024-02-15T06:08:09;11.52;;;6.60;;
75426;SDS011;64007;50.632;13.700;2024-02-15T06:10:37;9.88;;;6.30;;
75426;SDS011;64007;50.632;13.700;2024-02-15T06:13:04;10.68;;;6.63;;
75426;SDS011;64007;50.632;13.700;2024-02-15T06:15:30;11.10;;;7.20;;
75426;SDS011;64007;50.632;13.700;2024-02-15T06:17:56;14.65;;;8.35;;
75426;SDS011;64007;50.632;13.700;2024-02-15T06:20:22;16.90;;;8.80;;
75426;SDS011;64007;50.632;13.700;2024-02-15T06:22:48;16.77;;;8.85;;
75426;SDS011;64007;50.632;13.700;2024-02-15T06:25:14;15.10;;;8.90;;
75426;SDS011;64007;50.632;13.700;2024-02-15T06:27:46;19.90;;;9.05;;
75426;SDS011;64007;50.632;13.700;2024-02-15T06:30:14;21.77;;;9.95;;
75426;SDS011;64007;50.632;13.700;2024-02-15T06:32:58;19.73;;;9.93;;
75426;SDS011;64007;50.632;13.700;2024-02-15T06:35:42;17.42;;;9.40;;
75426;SDS011;64007;50.632;13.700;2024-02-15T06:38:27;17.33;;;9.50;;
75426;SDS011;64007;50.632;13.700;2024-02-15T06:41:12;23.70;;;9.02;;
75426;SDS011;64007;50.632;13.700;2024-02-15T06:43:38;13.82;;;8.23;;
75426;SDS011;64007;50.632;13.700;2024-02-15T06:46:07;14.38;;;8.48;;
75426;SDS011;64007;50.632;13.700;2024-02-15T06:48:34;23.20;;;9.70;;
75426;SDS011;64007;50.632;13.700;2024-02-15T06:50:59;22.33;;;9.73;;
75426;SDS011;64007;50.632;13.700;2024-02-15T06:53:25;17.73;;;9.70;;
75426;SDS011;64007;50.632;13.700;2024-02-15T06:55:51;20.67;;;9.93;;
75426;SDS011;64007;50.632;13.700;2024-02-15T06:58:17;17.45;;;9.75;;
75426;SDS011;64007;50.632;13.700;2024-02-15T07:00:43;23.52;;;10.00;;
75426;SDS011;64007;50.632;13.700;2024-02-15T07:03:09;18.17;;;9.98;;
75426;SDS011;64007;50.632;13.700;2024-02-15T07:05:38;18.48;;;9.45;;
75426;SDS011;64007;50.632;13.700;2024-02-15T07:08:07;21.83;;;9.63;;
75426;SDS011;64007;50.632;13.700;2024-02-15T07:10:38;19.87;;;9.97;;
75426;SDS011;64007;50.632;13.700;2024-02-15T07:13:05;22.27;;;10.70;;
75426;SDS011;64007;50.632;13.700;2024-02-15T07:15:35;17.65;;;10.00;;
75426;SDS011;64007;50.632;13.700;2024-02-15T07:18:06;22.13;;;11.20;;
75426;SDS011;64007;50.632;13.700;2024-02-15T07:20:35;19.02;;;10.07;;
75426;SDS011;64007;50.632;13.700;2024-02-15T07:23:01;21.15;;;10.35;;
75426;SDS011;64007;50.632;13.700;2024-02-15T07:25:27;17.17;;;9.68;;
75426;SDS011;64007;50.632;13.700;2024-02-15T07:27:52;20.23;;;10.10;;
75426;SDS011;64007;50.632;13.700;2024-02-15T07:30:19;17.85;;;9.63;;
75426;SDS011;64007;50.632;13.700;2024-02-15T07:32:45;17.83;;;9.57;;
75426;SDS011;64007;50.632;13.700;2024-02-15T07:35:11;22.88;;;11.48;;
75426;SDS011;64007;50.632;13.700;2024-02-15T07:37:39;22.75;;;10.43;;
75426;SDS011;64007;50.632;13.700;2024-02-15T07:40:05;24.58;;;10.25;;
75426;SDS011;64007;50.632;13.700;2024-02-15T07:42:33;22.58;;;10.68;;
75426;SDS011;64007;50.632;13.700;2024-02-15T07:45:00;18.77;;;10.75;;
75426;SDS011;64007;50.632;13.700;2024-02-15T07:47:27;20.08;;;10.70;;
75426;SDS011;64007;50.632;13.700;2024-02-15T07:49:55;23.40;;;11.23;;
75426;SDS011;64007;50.632;13.700;2024-02-15T07:52:20;30.67;;;12.88;;
75426;SDS011;64007;50.632;13.700;2024-02-15T07:54:46;32.35;;;14.43;;
75426;SDS011;64007;50.632;13.700;2024-02-15T07:57:12;37.33;;;16.30;;
75426;SDS011;64007;50.632;13.700;2024-02-15T07:59:39;39.67;;;16.75;;
75426;SDS011;64007;50.632;13.700;2024-02-15T08:02:05;34.92;;;16.55;;
75426;SDS011;64007;50.632;13.700;2024-02-15T08:04:30;32.38;;;15.82;;
75426;SDS011;64007;50.632;13.700;2024-02-15T08:06:56;34.55;;;17.13;;
75426;SDS011;64007;50.632;13.700;2024-02-15T08:09:22;34.08;;;16.10;;
75426;SDS011;64007;50.632;13.700;2024-02-15T08:11:49;20.90;;;10.63;;
75426;SDS011;64007;50.632;13.700;2024-02-15T08:14:16;21.33;;;10.93;;
75426;SDS011;64007;50.632;13.700;2024-02-15T08:16:42;22.02;;;11.48;;
75426;SDS011;64007;50.632;13.700;2024-02-15T08:19:07;24.52;;;13.70;;
75426;SDS011;64007;50.632;13.700;2024-02-15T08:21:34;23.27;;;13.35;;
75426;SDS011;64007;50.632;13.700;2024-02-15T08:24:02;28.75;;;13.32;;
75426;SDS011;64007;50.632;13.700;2024-02-15T08:26:32;27.65;;;14.30;;
75426;SDS011;64007;50.632;13.700;2024-02-15T08:28:58;30.95;;;15.68;;
75426;SDS011;64007;50.632;13.700;2024-02-15T08:31:24;30.60;;;15.68;;
75426;SDS011;64007;50.632;13.700;2024-02-15T08:33:49;35.17;;;16.63;;
75426;SDS011;64007;50.632;13.700;2024-02-15T08:36:15;36.90;;;17.40;;
75426;SDS011;64007;50.632;13.700;2024-02-15T08:38:41;46.05;;;19.70;;
75426;SDS011;64007;50.632;13.700;2024-02-15T08:41:07;41.75;;;18.75;;
75426;SDS011;64007;50.632;13.700;2024-02-15T08:43:33;40.25;;;18.02;;
75426;SDS011;64007;50.632;13.700;2024-02-15T08:46:00;34.50;;;17.27;;
75426;SDS011;64007;50.632;13.700;2024-02-15T08:48:26;36.25;;;16.92;;
75426;SDS011;64007;50.632;13.700;2024-02-15T08:50:52;38.28;;;16.30;;
75426;SDS011;64007;50.632;13.700;2024-02-15T08:53:18;31.58;;;16.35;;
75426;SDS011;64007;50.632;13.700;2024-02-15T08:55:47;26.88;;;14.60;;
75426;SDS011;64007;50.632;13.700;2024-02-15T08:58:13;26.90;;;15.02;;
75426;SDS011;64007;50.632;13.700;2024-02-15T09:00:39;31.55;;;16.02;;
75426;SDS011;64007;50.632;13.700;2024-02-15T09:03:10;28.63;;;15.05;;
75426;SDS011;64007;50.632;13.700;2024-02-15T09:05:39;35.33;;;18.48;;
75426;SDS011;64007;50.632;13.700;2024-02-15T09:08:08;34.80;;;17.60;;
75426;SDS011;64007;50.632;13.700;2024-02-15T09:10:34;26.50;;;16.83;;
75426;SDS011;64007;50.632;13.700;2024-02-15T09:13:01;30.02;;;17.10;;
75426;SDS011;64007;50.632;13.700;2024-02-15T09:15:27;27.63;;;15.93;;
75426;SDS011;64007;50.632;13.700;2024-02-15T09:17:56;38.45;;;17.50;;
75426;SDS011;64007;50.632;13.700;2024-02-15T09:20:23;31.38;;;17.35;;
75426;SDS011;64007;50.632;13.700;2024-02-15T09:22:53;31.02;;;16.80;;
75426;SDS011;64007;50.632;13.700;2024-02-15T09:25:20;30.27;;;17.08;;
75426;SDS011;64007;50.632;13.700;2024-02-15T09:27:49;37.05;;;19.20;;
75426;SDS011;64007;50.632;13.700;2024-02-15T09:30:16;37.42;;;19.35;;
75426;SDS011;64007;50.632;13.700;2024-02-15T09:32:43;37.78;;;18.60;;
75426;SDS011;64007;50.632;13.700;2024-02-15T09:35:10;34.75;;;17.73;;
75426;SDS011;64007;50.632;13.700;2024-02-15T09:37:47;408.00;;;253.80;;
75426;SDS011;64007;50.632;13.700;2024-02-15T09:40:17;462.05;;;294.38;;
75426;SDS011;64007;50.632;13.700;2024-02-15T09:42:44;329.27;;;201.52;;
75426;SDS011;64007;50.632;13.700;2024-02-15T09:45:13;240.77;;;139.52;;
75426;SDS011;64007;50.632;13.700;2024-02-15T09:47:40;185.18;;;102.43;;
75426;SDS011;64007;50.632;13.700;2024-02-15T09:50:07;152.98;;;86.90;;
75426;SDS011;64007;50.632;13.700;2024-02-15T09:52:39;158.88;;;84.03;;
75426;SDS011;64007;50.632;13.700;2024-02-15T09:55:06;99.43;;;53.53;;
75426;SDS011;64007;50.632;13.700;2024-02-15T10:00:04;59.22;;;26.00;;
75426;SDS011;64007;50.632;13.700;2024-02-15T10:02:33;46.65;;;23.10;;
75426;SDS011;64007;50.632;13.700;2024-02-15T10:05:04;46.28;;;20.50;;
75426;SDS011;64007;50.632;13.700;2024-02-15T10:07:30;38.50;;;19.52;;
75426;SDS011;64007;50.632;13.700;2024-02-15T10:09:56;45.63;;;20.63;;
75426;SDS011;64007;50.632;13.700;2024-02-15T10:12:22;40.30;;;19.30;;
75426;SDS011;64007;50.632;13.700;2024-02-15T10:14:48;38.65;;;18.45;;
75426;SDS011;64007;50.632;13.700;2024-02-15T10:17:17;37.95;;;17.92;;
75426;SDS011;64007;50.632;13.700;2024-02-15T10:19:44;34.85;;;17.90;;
75426;SDS011;64007;50.632;13.700;2024-02-15T10:22:12;28.30;;;15.48;;
75426;SDS011;64007;50.632;13.700;2024-02-15T10:24:40;29.25;;;14.77;;
75426;SDS011;64007;50.632;13.700;2024-02-15T10:27:06;32.05;;;14.73;;
75426;SDS011;64007;50.632;13.700;2024-02-15T10:29:32;29.63;;;15.38;;
75426;SDS011;64007;50.632;13.700;2024-02-15T10:32:00;29.63;;;14.95;;
75426;SDS011;64007;50.632;13.700;2024-02-15T10:34:28;26.15;;;14.65;;
75426;SDS011;64007;50.632;13.700;2024-02-15T10:36:54;25.00;;;14.68;;
75426;SDS011;64007;50.632;13.700;2024-02-15T10:39:22;26.77;;;14.63;;
75426;SDS011;64007;50.632;13.700;2024-02-15T10:41:52;34.63;;;14.55;;
75426;SDS011;64007;50.632;13.700;2024-02-15T10:44:20;32.42;;;14.95;;
75426;SDS011;64007;50.632;13.700;2024-02-15T10:46:51;32.78;;;17.33;;
75426;SDS011;64007;50.632;13.700;2024-02-15T10:49:18;50.95;;;25.88;;
75426;SDS011;64007;50.632;13.700;2024-02-15T10:51:48;42.90;;;22.15;;
75426;SDS011;64007;50.632;13.700;2024-02-15T10:56:48;44.28;;;18.52;;
75426;SDS011;64007;50.632;13.700;2024-02-15T10:59:21;56.15;;;24.50;;
75426;SDS011;64007;50.632;13.700;2024-02-15T11:04:24;66.32;;;28.35;;
75426;SDS011;64007;50.632;13.700;2024-02-15T11:09:23;69.28;;;29.85;;
75426;SDS011;64007;50.632;13.700;2024-02-15T11:11:54;70.65;;;31.33;;
75426;SDS011;64007;50.632;13.700;2024-02-15T11:14:30;77.97;;;35.35;;
75426;SDS011;64007;50.632;13.700;2024-02-15T11:16:57;78.30;;;34.05;;
75426;SDS011;64007;50.632;13.700;2024-02-15T11:22:01;63.75;;;29.48;;
75426;SDS011;64007;50.632;13.700;2024-02-15T11:24:34;59.67;;;27.33;;
75426;SDS011;64007;50.632;13.700;2024-02-15T11:27:05;62.97;;;26.73;;
75426;SDS011;64007;50.632;13.700;2024-02-15T11:42:42;52.67;;;22.98;;
75426;SDS011;64007;50.632;13.700;2024-02-15T11:45:08;49.40;;;22.20;;
75426;SDS011;64007;50.632;13.700;2024-02-15T11:47:37;50.28;;;22.63;;
75426;SDS011;64007;50.632;13.700;2024-02-15T11:50:09;46.20;;;21.60;;
75426;SDS011;64007;50.632;13.700;2024-02-15T11:52:43;38.20;;;20.43;;
75426;SDS011;64007;50.632;13.700;2024-02-15T11:55:11;47.38;;;21.10;;
75426;SDS011;64007;50.632;13.700;2024-02-15T11:57:41;45.72;;;21.38;;
75426;SDS011;64007;50.632;13.700;2024-02-15T12:03:06;41.65;;;19.17;;
75426;SDS011;64007;50.632;13.700;2024-02-15T12:05:51;38.67;;;19.23;;
75426;SDS011;64007;50.632;13.700;2024-02-15T12:08:36;41.17;;;19.63;;
75426;SDS011;64007;50.632;13.700;2024-02-15T12:11:21;41.00;;;20.30;;
75426;SDS011;64007;50.632;13.700;2024-02-15T12:14:05;38.38;;;18.70;;
75426;SDS011;64007;50.632;13.700;2024-02-15T12:20:03;40.28;;;17.90;;
75426;SDS011;64007;50.632;13.700;2024-02-15T12:22:36;40.35;;;17.50;;
75426;SDS011;64007;50.632;13.700;2024-02-15T12:25:13;32.60;;;16.63;;
75426;SDS011;64007;50.632;13.700;2024-02-15T12:27:40;38.42;;;16.48;;
75426;SDS011;64007;50.632;13.700;2024-02-15T12:30:17;33.60;;;16.80;;
75426;SDS011;64007;50.632;13.700;2024-02-15T12:32:51;31.73;;;15.20;;
75426;SDS011;64007;50.632;13.700;2024-02-15T12:35:19;26.55;;;14.75;;
75426;SDS011;64007;50.632;13.700;2024-02-15T12:37:46;29.83;;;15.30;;
75426;SDS011;64007;50.632;13.700;2024-02-15T12:40:13;30.42;;;15.40;;
75426;SDS011;64007;50.632;13.700;2024-02-15T12:42:45;37.85;;;17.83;;
75426;SDS011;64007;50.632;13.700;2024-02-15T12:45:18;35.03;;;17.73;;
75426;SDS011;64007;50.632;13.700;2024-02-15T12:47:55;38.67;;;18.30;;
75426;SDS011;64007;50.632;13.700;2024-02-15T12:50:28;36.03;;;17.95;;
75426;SDS011;64007;50.632;13.700;2024-02-15T12:52:55;36.58;;;16.67;;
75426;SDS011;64007;50.632;13.700;2024-02-15T12:55:21;33.55;;;17.85;;
75426;SDS011;64007;50.632;13.700;2024-02-15T12:57:50;33.30;;;17.67;;
75426;SDS011;64007;50.632;13.700;2024-02-15T13:00:18;33.35;;;16.77;;
75426;SDS011;64007;50.632;13.700;2024-02-15T13:02:46;36.42;;;17.70;;
75426;SDS011;64007;50.632;13.700;2024-02-15T13:05:17;39.35;;;16.10;;
75426;SDS011;64007;50.632;13.700;2024-02-15T13:07:44;33.08;;;15.63;;
75426;SDS011;64007;50.632;13.700;2024-02-15T13:10:11;32.67;;;17.17;;
75426;SDS011;64007;50.632;13.700;2024-02-15T13:12:40;32.63;;;16.45;;
75426;SDS011;64007;50.632;13.700;2024-02-15T13:15:10;31.50;;;16.23;;
75426;SDS011;64007;50.632;13.700;2024-02-15T13:17:40;31.88;;;16.38;;
75426;SDS011;64007;50.632;13.700;2024-02-15T13:20:09;32.03;;;16.45;;
75426;SDS011;64007;50.632;13.700;2024-02-15T13:22:40;29.88;;;16.75;;
75426;SDS011;64007;50.632;13.700;2024-02-15T13:25:08;33.80;;;16.52;;
75426;SDS011;64007;50.632;13.700;2024-02-15T13:27:35;28.25;;;15.45;;
75426;SDS011;64007;50.632;13.700;2024-02-15T13:30:06;29.17;;;16.00;;
75426;SDS011;64007;50.632;13.700;2024-02-15T13:32:37;29.45;;;15.23;;
75426;SDS011;64007;50.632;13.700;2024-02-15T13:35:05;28.13;;;15.35;;
75426;SDS011;64007;50.632;13.700;2024-02-15T13:37:42;28.75;;;15.07;;
75426;SDS011;64007;50.632;13.700;2024-02-15T13:40:12;26.40;;;14.50;;
75426;SDS011;64007;50.632;13.700;2024-02-15T13:42:44;24.98;;;12.38;;
75426;SDS011;64007;50.632;13.700;2024-02-15T13:45:20;21.60;;;12.70;;
75426;SDS011;64007;50.632;13.700;2024-02-15T13:47:50;24.38;;;12.60;;
75426;SDS011;64007;50.632;13.700;2024-02-15T13:50:18;22.48;;;13.00;;
75426;SDS011;64007;50.632;13.700;2024-02-15T13:52:45;27.35;;;14.48;;
75426;SDS011;64007;50.632;13.700;2024-02-15T13:55:11;25.42;;;14.15;;
75426;SDS011;64007;50.632;13.700;2024-02-15T13:57:39;27.63;;;14.45;;
75426;SDS011;64007;50.632;13.700;2024-02-15T14:00:07;26.13;;;14.50;;
75426;SDS011;64007;50.632;13.700;2024-02-15T14:02:50;26.35;;;12.88;;
75426;SDS011;64007;50.632;13.700;2024-02-15T14:05:17;27.35;;;13.80;;
75426;SDS011;64007;50.632;13.700;2024-02-15T14:07:52;25.13;;;14.00;;
75426;SDS011;64007;50.632;13.700;2024-02-15T14:10:20;25.98;;;14.85;;
75426;SDS011;64007;50.632;13.700;2024-02-15T14:12:52;27.13;;;15.00;;
75426;SDS011;64007;50.632;13.700;2024-02-15T14:15:24;27.98;;;14.30;;
75426;SDS011;64007;50.632;13.700;2024-02-15T14:17:50;25.02;;;14.35;;
75426;SDS011;64007;50.632;13.700;2024-02-15T14:20:15;27.73;;;16.10;;
75426;SDS011;64007;50.632;13.700;2024-02-15T14:22:43;37.72;;;16.08;;
75426;SDS011;64007;50.632;13.700;2024-02-15T14:25:10;29.23;;;16.33;;
75426;SDS011;64007;50.632;13.700;2024-02-15T14:27:40;27.05;;;16.08;;
75426;SDS011;64007;50.632;13.700;2024-02-15T14:30:05;30.67;;;15.30;;
75426;SDS011;64007;50.632;13.700;2024-02-15T14:32:51;28.23;;;15.02;;
75426;SDS011;64007;50.632;13.700;2024-02-15T14:35:29;25.27;;;14.55;;
75426;SDS011;64007;50.632;13.700;2024-02-15T14:37:57;27.55;;;16.27;;
75426;SDS011;64007;50.632;13.700;2024-02-15T14:40:23;29.13;;;15.13;;
75426;SDS011;64007;50.632;13.700;2024-02-15T14:42:49;31.70;;;15.30;;
75426;SDS011;64007;50.632;13.700;2024-02-15T14:45:15;30.17;;;14.52;;
75426;SDS011;64007;50.632;13.700;2024-02-15T14:47:40;23.65;;;15.18;;
75426;SDS011;64007;50.632;13.700;2024-02-15T14:50:07;29.13;;;15.60;;
75426;SDS011;64007;50.632;13.700;2024-02-15T14:52:34;29.60;;;14.73;;
75426;SDS011;64007;50.632;13.700;2024-02-15T14:55:02;30.58;;;15.52;;